Terminal Aerodrome Forecast
Issued by NWS

Home | Current Version | Previous Version | Text Only | Print | Product List | Glossary On
Versions: 1 2 3 4 5 6 7 8 9 10 11 12 13 14
000
FTUS44 KLIX 180500
TAFMCB
TAF
KMCB 180520Z 1806/1906 00000KT P6SM FEW030 BKN250
     FM181000 00000KT P6SM SCT015 BKN250
      TEMPO 1810/1813 4SM BR
     FM181500 VRB04KT P6SM VCSH BKN025
     FM181800 VRB05KT P6SM VCSH BKN035 PROB30 1818/1824 3SM -TSRA
      BKN028CB
     FM190100 VRB03KT P6SM SCT050 BKN110=

USA.gov is the U.S. government's official web portal to all federal, state and local government web resources and services.